Time;durP1;ratioP1;P1;durP2;ratioP2;P2;SDS_P1;SDS_P2;PMS_P1;PMS_P2;Temp;Humidity;BMP_temperature;BMP_pressure;BME280_temperature;BME280_humidity;BME280_pressure;Samples;Min_cycle;Max_cycle;Signal;HPM_P1;HPM_P2
2023/09/09 00:00:51;;;;;;;;;19.00;17.33;;;;;29.84;49.48;101355.97;5117329;27;45420;-75
2023/09/09 00:03:17;;;;;;;;;15.33;14.00;;;;;29.83;49.34;101362.34;5117517;27;45321;-75
2023/09/09 00:05:42;;;;;;;;;16.75;16.00;;;;;29.84;49.81;101359.47;5117528;27;45531;-75
2023/09/09 00:08:08;;;;;;;;;21.25;17.50;;;;;29.87;49.37;101360.88;5116057;27;46145;-75
2023/09/09 00:10:38;;;;;;;;;20.33;17.67;;;;;29.85;49.40;101346.84;5117450;27;45449;-76
2023/09/09 00:13:04;;;;;;;;;20.67;18.00;;;;;29.85;49.24;101358.41;5117802;27;45323;-76
2023/09/09 00:15:30;;;;;;;;;19.00;18.00;;;;;29.92;49.66;101361.03;5117192;27;45373;-75
2023/09/09 00:17:56;;;;;;;;;20.00;17.33;;;;;29.94;49.09;101368.84;5117240;27;46170;-75
2023/09/09 00:20:33;;;;;;;;;22.33;18.33;;;;;29.83;49.26;101346.25;5116491;27;45409;-75
2023/09/09 00:23:00;;;;;;;;;19.75;19.75;;;;;29.95;49.02;101365.94;5117471;27;45476;-75
2023/09/09 00:25:26;;;;;;;;;19.67;19.67;;;;;29.91;49.23;101356.72;5117405;27;45344;-75
2023/09/09 00:27:52;;;;;;;;;19.50;18.50;;;;;29.97;50.02;101360.38;5117090;27;45420;-75
2023/09/09 00:30:17;;;;;;;;;23.00;19.67;;;;;29.96;49.35;101356.88;5116793;27;45424;-74
2023/09/09 00:32:42;;;;;;;;;17.00;15.67;;;;;29.94;49.02;101344.72;5098696;27;45317;-75
2023/09/09 00:35:08;;;;;;;;;17.67;17.67;;;;;29.94;49.20;101339.34;5117054;27;45414;-75
2023/09/09 00:37:33;;;;;;;;;18.67;17.00;;;;;29.95;49.01;101341.00;5116904;27;46494;-76
2023/09/09 00:39:59;;;;;;;;;18.67;17.00;;;;;29.93;49.30;101330.47;5117443;27;45401;-75
2023/09/09 00:42:24;;;;;;;;;16.00;15.33;;;;;29.98;48.87;101337.84;5117003;27;45281;-75
2023/09/09 00:44:50;;;;;;;;;16.67;16.67;;;;;30.00;49.17;101341.16;5117052;27;45239;-75
2023/09/09 00:47:16;;;;;;;;;17.00;16.00;;;;;30.00;49.13;101337.66;5116639;27;46252;-75
2023/09/09 00:49:42;;;;;;;;;15.67;15.67;;;;;30.03;48.87;101339.88;5116754;27;45340;-75
2023/09/09 00:52:08;;;;;;;;;18.00;16.67;;;;;30.00;49.15;101330.44;5116653;27;45337;-74
2023/09/09 00:54:33;;;;;;;;;15.33;15.33;;;;;29.99;48.59;101326.09;5117193;27;45324;-75
2023/09/09 00:57:03;;;;;;;;;17.00;17.00;;;;;30.06;48.85;101334.06;5098435;27;47185;-75
2023/09/09 00:59:28;;;;;;;;;19.33;19.33;;;;;30.00;48.95;101325.06;5116564;27;45391;-75
2023/09/09 01:01:53;;;;;;;;;18.67;17.00;;;;;30.04;48.67;101333.47;5098186;27;45246;-76
2023/09/09 01:04:19;;;;;;;;;17.67;17.00;;;;;30.03;49.07;101332.63;5116797;27;45276;-75
2023/09/09 01:06:44;;;;;;;;;19.00;15.00;;;;;30.03;48.98;101326.47;5116633;27;46683;-75
2023/09/09 01:09:10;;;;;;;;;22.33;17.33;;;;;30.06;48.64;101334.06;5116911;27;45375;-75
2023/09/09 01:11:35;;;;;;;;;18.00;17.33;;;;;30.01;48.71;101325.84;5116605;27;45299;-76
2023/09/09 01:14:02;;;;;;;;;18.33;16.00;;;;;30.04;48.51;101339.66;5116541;27;45359;-75
2023/09/09 01:16:29;;;;;;;;;19.00;19.00;;;;;30.05;48.75;101329.75;5116483;27;46348;-76
2023/09/09 01:18:54;;;;;;;;;15.33;15.33;;;;;30.03;48.86;101331.84;5115868;27;45308;-75
2023/09/09 01:21:22;;;;;;;;;14.67;14.67;;;;;30.06;48.73;101337.56;5119742;27;45340;-75
2023/09/09 01:23:47;;;;;;;;;14.33;14.00;;;;;30.03;48.69;101332.63;5120183;27;45404;-75
2023/09/09 01:26:13;;;;;;;;;17.67;16.00;;;;;29.99;48.68;101322.56;5101593;27;47012;-75
2023/09/09 01:28:38;;;;;;;;;18.67;17.00;;;;;30.05;48.72;101335.13;5119855;27;45306;-75
2023/09/09 01:31:04;;;;;;;;;16.67;15.33;;;;;29.93;48.79;101317.06;5120325;27;45258;-76
2023/09/09 01:33:29;;;;;;;;;17.67;16.00;;;;;30.07;48.76;101333.03;5119763;27;45247;-75
2023/09/09 01:35:54;;;;;;;;;17.67;16.33;;;;;30.09;48.37;101338.97;5119696;27;45519;-75
2023/09/09 01:38:20;;;;;;;;;16.00;15.33;;;;;30.04;48.57;101331.59;5119930;27;45294;-75
2023/09/09 01:40:45;;;;;;;;;18.00;16.00;;;;;30.02;48.75;101328.34;5120112;27;45260;-75
2023/09/09 01:43:10;;;;;;;;;21.00;19.00;;;;;30.07;48.92;101330.34;5119540;27;45345;-76
2023/09/09 01:45:36;;;;;;;;;16.00;13.00;;;;;30.04;48.48;101323.56;5119839;27;46125;-76
2023/09/09 01:48:01;;;;;;;;;16.67;16.00;;;;;30.06;49.02;101334.88;5119792;27;45397;-76
2023/09/09 01:50:26;;;;;;;;;16.00;16.00;;;;;30.03;47.92;101327.28;5119968;27;45789;-75
2023/09/09 01:52:52;;;;;;;;;15.00;14.67;;;;;30.05;48.68;101329.75;5119803;27;45283;-76
2023/09/09 01:55:17;;;;;;;;;12.00;12.00;;;;;30.09;48.41;101335.47;5119785;27;45368;-76
2023/09/09 01:57:43;;;;;;;;;16.00;14.00;;;;;29.95;48.68;101311.50;5100954;27;45372;-76
2023/09/09 02:00:09;;;;;;;;;15.33;14.33;;;;;30.07;48.35;101333.84;5119735;27;45364;-75
2023/09/09 02:02:34;;;;;;;;;14.67;14.33;;;;;30.01;48.49;101329.34;5119797;27;45410;-75
2023/09/09 02:05:00;;;;;;;;;16.00;14.33;;;;;30.04;47.91;101328.91;5119350;27;46268;-75
2023/09/09 02:07:25;;;;;;;;;15.00;15.00;;;;;30.05;48.49;101327.06;5119522;27;45352;-75
2023/09/09 02:09:51;;;;;;;;;14.00;12.67;;;;;30.07;48.51;101336.53;5119421;27;45428;-76
2023/09/09 02:12:16;;;;;;;;;15.67;15.00;;;;;30.03;48.38;101329.16;5119054;27;45222;-76
2023/09/09 02:14:41;;;;;;;;;13.00;12.67;;;;;30.03;48.28;101327.28;5119275;27;46007;-75
2023/09/09 02:17:07;;;;;;;;;15.33;15.33;;;;;30.07;48.17;101339.22;5119309;27;45387;-75
2023/09/09 02:19:32;;;;;;;;;14.67;13.33;;;;;30.08;48.39;101334.66;5119269;27;45412;-76
2023/09/09 02:21:58;;;;;;;;;14.00;12.00;;;;;30.04;48.44;101325.41;5118017;27;45300;-75
2023/09/09 02:24:23;;;;;;;;;15.67;15.33;;;;;30.04;48.05;101331.59;5117394;27;47349;-75
2023/09/09 02:26:49;;;;;;;;;14.67;14.33;;;;;30.07;48.49;101328.47;5119298;27;45388;-75
2023/09/09 02:29:14;;;;;;;;;16.33;14.00;;;;;30.07;48.38;101325.78;5118528;27;45277;-75
2023/09/09 02:31:39;;;;;;;;;16.33;14.33;;;;;30.04;48.51;101317.38;5118214;27;45523;-76
2023/09/09 02:34:05;;;;;;;;;15.00;13.00;;;;;30.09;48.25;101324.72;5118259;27;45253;-75
2023/09/09 02:36:30;;;;;;;;;14.33;14.00;;;;;29.94;48.09;101305.31;5119009;27;45360;-75
2023/09/09 02:38:55;;;;;;;;;16.00;15.00;;;;;30.09;48.13;101325.56;5119138;27;45297;-75
2023/09/09 02:41:21;;;;;;;;;14.00;14.00;;;;;30.08;47.92;101323.94;5100476;27;45373;-75
2023/09/09 02:43:46;;;;;;;;;14.33;14.33;;;;;30.03;47.85;101321.09;5118756;27;45493;-75
2023/09/09 02:46:11;;;;;;;;;16.00;14.33;;;;;30.08;48.11;101326.63;5118914;27;45309;-75
2023/09/09 02:48:36;;;;;;;;;14.67;14.67;;;;;30.04;48.35;101317.38;5100039;27;45353;-76
2023/09/09 02:51:02;;;;;;;;;14.33;13.00;;;;;30.10;48.44;101329.06;5100318;27;45491;-76
2023/09/09 02:53:27;;;;;;;;;16.00;13.33;;;;;30.06;48.08;101320.63;5099702;27;47261;-75
2023/09/09 02:55:53;;;;;;;;;13.33;13.33;;;;;30.10;48.43;101331.75;5118715;27;45319;-76
2023/09/09 02:58:18;;;;;;;;;15.67;15.33;;;;;30.06;48.11;101329.50;5118902;27;45273;-76
2023/09/09 03:00:43;;;;;;;;;15.00;13.00;;;;;30.05;47.67;101332.44;5118816;27;45344;-75
2023/09/09 03:03:09;;;;;;;;;15.67;15.00;;;;;30.01;48.00;101325.84;5100035;27;47421;-75
2023/09/09 03:05:37;;;;;;;;;15.67;14.67;;;;;29.95;47.78;101319.53;5100097;27;45399;-75
2023/09/09 03:08:04;;;;;;;;;15.00;14.00;;;;;30.03;47.86;101329.94;5118311;27;45312;-76
2023/09/09 03:10:29;;;;;;;;;14.00;13.00;;;;;30.05;47.80;101335.13;5118533;27;45300;-76
2023/09/09 03:12:56;;;;;;;;;12.00;12.00;;;;;30.07;47.76;101335.69;5099933;27;46039;-76
2023/09/09 03:15:22;;;;;;;;;14.33;12.33;;;;;30.03;47.72;101331.84;5118501;27;45344;-75
2023/09/09 03:17:48;;;;;;;;;16.33;15.00;;;;;30.05;47.74;101335.13;5118407;27;45402;-76
2023/09/09 03:20:14;;;;;;;;;13.00;12.00;;;;;29.98;48.03;101327.13;5098863;27;45655;-76
2023/09/09 03:22:39;;;;;;;;;13.00;13.00;;;;;30.09;47.69;101352.38;5117874;27;45626;-75
2023/09/09 03:25:07;;;;;;;;;14.00;14.00;;;;;30.06;47.41;101345.59;5118437;27;45431;-75
2023/09/09 03:27:33;;;;;;;;;17.33;13.00;;;;;30.06;47.92;101339.41;5118461;27;45400;-75
2023/09/09 03:29:58;;;;;;;;;17.33;14.00;;;;;30.07;47.99;101349.94;5118239;27;45478;-76
2023/09/09 03:32:25;;;;;;;;;16.33;16.33;;;;;30.07;47.52;101354.47;5117888;27;48040;-75
2023/09/09 03:34:51;;;;;;;;;17.00;15.00;;;;;30.05;47.62;101345.84;5104159;27;45309;-75
2023/09/09 03:37:17;;;;;;;;;14.00;11.33;;;;;30.04;48.10;101346.88;5097118;27;45334;-75
2023/09/09 03:39:42;;;;;;;;;14.33;13.67;;;;;30.07;47.63;101358.00;5097595;27;45409;-76
2023/09/09 03:42:07;;;;;;;;;14.33;12.00;;;;;29.95;47.73;101331.06;5107938;27;45428;-75
2023/09/09 03:44:33;;;;;;;;;13.33;12.67;;;;;30.04;47.60;101347.69;5117834;27;45215;-76
2023/09/09 03:46:58;;;;;;;;;13.00;12.00;;;;;30.04;47.79;101353.06;5117921;27;45262;-76
2023/09/09 03:49:23;;;;;;;;;17.00;13.67;;;;;30.04;47.70;101352.25;5118064;27;45414;-76
2023/09/09 03:51:49;;;;;;;;;12.00;12.00;;;;;30.03;47.60;101348.72;5116824;27;46322;-75
2023/09/09 03:54:14;;;;;;;;;15.33;13.00;;;;;30.07;47.76;101357.16;5117735;27;45331;-75
2023/09/09 03:56:39;;;;;;;;;17.00;15.33;;;;;30.06;47.31;101355.50;5099405;27;45353;-75
2023/09/09 03:59:05;;;;;;;;;13.00;12.00;;;;;30.07;47.40;101355.31;5118007;27;45348;-76
2023/09/09 04:01:31;;;;;;;;;12.00;12.00;;;;;30.04;47.86;101353.06;5116587;27;46483;-76
2023/09/09 04:03:56;;;;;;;;;13.33;11.00;;;;;30.10;47.49;101362.09;5117653;27;45242;-75
2023/09/09 04:06:22;;;;;;;;;13.67;12.67;;;;;30.06;47.63;101355.50;5117024;27;45366;-76
2023/09/09 04:08:47;;;;;;;;;12.00;12.00;;;;;30.04;47.63;101345.03;5117668;27;45579;-75
2023/09/09 04:11:12;;;;;;;;;12.00;12.00;;;;;30.09;47.83;101364.97;5117408;27;45582;-75
2023/09/09 04:13:38;;;;;;;;;14.67;14.67;;;;;30.06;47.63;101356.34;5098936;27;45271;-76
2023/09/09 04:16:04;;;;;;;;;9.00;9.00;;;;;30.10;47.57;101366.63;5116872;27;45358;-76
2023/09/09 04:18:29;;;;;;;;;13.00;12.33;;;;;30.07;47.33;101358.00;5117593;27;45268;-76
2023/09/09 04:20:55;;;;;;;;;15.00;14.00;;;;;30.07;47.44;101359.84;5116975;27;46256;-75
2023/09/09 04:23:20;;;;;;;;;13.33;12.00;;;;;30.04;47.29;101354.91;5117328;27;45314;-75
2023/09/09 04:25:46;;;;;;;;;10.67;10.00;;;;;30.07;47.49;101355.31;5117608;27;45278;-75
2023/09/09 04:28:13;;;;;;;;;11.00;11.00;;;;;30.11;47.26;101363.72;5117524;27;45272;-75
2023/09/09 04:30:40;;;;;;;;;12.00;12.00;;;;;30.07;47.10;101360.66;5116602;27;47232;-76
2023/09/09 04:33:11;;;;;;;;;14.00;14.00;;;;;30.11;47.29;101360.22;5098732;27;45400;-76
2023/09/09 04:35:41;;;;;;;;;14.33;13.33;;;;;30.08;47.60;101356.13;5116725;27;45391;-75
2023/09/09 04:38:07;;;;;;;;;13.00;13.00;;;;;30.04;47.17;101355.75;5117176;27;45388;-75
2023/09/09 04:40:33;;;;;;;;;12.33;12.33;;;;;30.06;47.51;101356.34;5116258;27;46148;-76
2023/09/09 04:42:58;;;;;;;;;14.00;13.00;;;;;30.02;47.32;101355.16;5116771;27;45291;-75
2023/09/09 04:45:24;;;;;;;;;12.67;12.67;;;;;30.06;47.32;101358.19;5098168;27;49583;-76
2023/09/09 04:47:52;;;;;;;;;14.33;12.00;;;;;30.06;47.13;101359.03;5116997;27;45482;-76
2023/09/09 04:50:18;;;;;;;;;11.33;11.33;;;;;30.05;47.36;101362.75;5116328;27;45494;-76
2023/09/09 04:52:44;;;;;;;;;13.00;13.00;;;;;30.03;47.26;101354.09;5115998;27;45445;-76
2023/09/09 04:55:09;;;;;;;;;15.00;13.00;;;;;30.06;47.31;101360.88;5116162;27;45418;-75
2023/09/09 04:57:35;;;;;;;;;15.33;14.00;;;;;30.06;47.18;101363.56;5097673;27;45644;-75
2023/09/09 05:00:04;;;;;;;;;10.67;10.67;;;;;30.05;47.31;101353.88;5116813;27;46235;-76
2023/09/09 05:02:29;;;;;;;;;13.00;13.00;;;;;30.07;47.29;101360.66;5116703;27;45374;-76
2023/09/09 05:04:54;;;;;;;;;10.00;8.67;;;;;30.06;47.04;101360.88;5116658;27;45280;-76
2023/09/09 05:07:22;;;;;;;;;12.67;11.00;;;;;30.05;47.25;101353.88;5116575;27;45384;-76
2023/09/09 05:09:47;;;;;;;;;12.67;11.67;;;;;30.04;47.15;101357.59;5116804;27;45400;-76
2023/09/09 05:12:13;;;;;;;;;14.00;13.00;;;;;30.01;47.19;101352.69;5098019;27;45366;-76
2023/09/09 05:14:38;;;;;;;;;13.00;12.33;;;;;30.03;47.11;101353.31;5098202;27;45398;-75
2023/09/09 05:17:03;;;;;;;;;14.33;14.33;;;;;30.03;47.33;101358.66;5098193;27;45471;-76
2023/09/09 05:19:29;;;;;;;;;12.00;12.00;;;;;30.07;47.19;101366.03;5116144;27;45467;-76
2023/09/09 05:21:54;;;;;;;;;12.67;11.67;;;;;29.98;47.22;101347.78;5116393;27;45464;-76
2023/09/09 05:24:19;;;;;;;;;14.67;12.33;;;;;30.05;47.21;101359.25;5116495;27;48601;-76
2023/09/09 05:26:45;;;;;;;;;14.67;14.00;;;;;30.03;46.90;101359.47;5116481;27;45332;-75
2023/09/09 05:29:10;;;;;;;;;14.00;14.00;;;;;30.11;47.04;101373.66;5116247;27;46575;-75
2023/09/09 05:31:35;;;;;;;;;11.00;10.33;;;;;30.06;47.43;101361.72;5116427;27;45366;-76
2023/09/09 05:34:00;;;;;;;;;11.00;11.00;;;;;30.03;47.08;101356.78;5116059;27;45451;-76
2023/09/09 05:36:27;;;;;;;;;11.33;11.33;;;;;30.07;47.19;101366.03;5116580;27;45387;-76
2023/09/09 05:38:59;;;;;;;;;11.00;10.00;;;;;30.09;46.73;101373.03;5116395;27;45433;-76
2023/09/09 05:41:24;;;;;;;;;13.33;11.33;;;;;30.07;46.89;101366.03;5115943;27;45448;-76
2023/09/09 05:43:50;;;;;;;;;13.00;10.00;;;;;30.10;47.27;101380.88;5116207;27;45459;-76
2023/09/09 05:46:15;;;;;;;;;14.00;11.67;;;;;30.05;47.22;101376.19;5116449;27;45367;-76
2023/09/09 05:48:42;;;;;;;;;13.33;10.33;;;;;29.94;46.73;101361.63;5115568;27;46047;-76
2023/09/09 05:51:08;;;;;;;;;15.00;11.00;;;;;30.09;46.87;101383.75;5116221;27;45417;-76
2023/09/09 05:53:33;;;;;;;;;13.67;12.33;;;;;30.06;47.04;101388.53;5097639;27;45349;-76
2023/09/09 05:55:58;;;;;;;;;13.00;11.00;;;;;30.09;47.01;101389.13;5116148;27;45250;-76
2023/09/09 05:58:24;;;;;;;;;13.33;13.00;;;;;30.06;46.85;101383.16;5115691;27;47322;-76
2023/09/09 06:00:49;;;;;;;;;12.00;11.33;;;;;30.09;46.67;101383.75;5115867;27;45308;-76
2023/09/09 06:03:14;;;;;;;;;16.67;12.33;;;;;30.05;47.24;101384.22;5115515;27;45340;-75
2023/09/09 06:05:40;;;;;;;;;13.33;12.00;;;;;30.03;46.78;101382.81;5116709;27;45523;-75
2023/09/09 06:08:05;;;;;;;;;13.00;13.00;;;;;30.09;46.98;101389.13;5119449;27;45395;-75
2023/09/09 06:10:31;;;;;;;;;11.33;11.33;;;;;30.06;47.41;101385.84;5119513;27;45191;-75
2023/09/09 06:12:56;;;;;;;;;15.00;13.00;;;;;30.07;46.64;101384.00;5119328;27;45354;-75
2023/09/09 06:15:21;;;;;;;;;12.00;11.00;;;;;30.07;46.79;101387.50;5118731;27;45473;-74
2023/09/09 06:17:46;;;;;;;;;13.00;12.00;;;;;30.07;46.82;101381.31;5118667;27;46229;-75
2023/09/09 06:20:14;;;;;;;;;13.67;13.33;;;;;30.11;46.76;101395.13;5118369;27;45439;-75
2023/09/09 06:22:39;;;;;;;;;13.00;11.33;;;;;30.06;47.33;101388.53;5118734;27;45346;-75
2023/09/09 06:25:05;;;;;;;;;10.33;10.33;;;;;30.12;46.78;101392.19;5117751;27;45530;-76
2023/09/09 06:27:30;;;;;;;;;13.67;11.67;;;;;30.07;46.94;101382.13;5118233;27;46554;-77
2023/09/09 06:29:56;;;;;;;;;15.67;13.67;;;;;30.01;46.72;101374.13;5118859;27;45375;-78
2023/09/09 06:32:21;;;;;;;;;13.33;13.00;;;;;30.12;45.21;101392.19;5118261;27;45397;-75
2023/09/09 06:34:46;;;;;;;;;12.33;11.67;;;;;30.00;45.18;101397.50;5123804;27;45473;-74
2023/09/09 06:37:12;;;;;;;;;12.33;12.33;;;;;29.88;44.81;101399.22;5128658;27;46126;-75
2023/09/09 06:39:37;;;;;;;;;19.33;15.67;;;;;29.73;44.80;101401.22;5118414;27;45316;-75
2023/09/09 06:42:03;;;;;;;;;12.00;12.00;;;;;29.51;44.88;101398.06;5118651;27;45419;-76
2023/09/09 06:44:28;;;;;;;;;15.25;14.75;;;;;29.37;45.23;101402.72;5120736;27;45417;-74
2023/09/09 06:46:54;;;;;;;;;12.33;12.33;;;;;29.20;45.27;101392.53;5138582;27;49643;-76
2023/09/09 06:49:19;;;;;;;;;13.00;13.00;;;;;29.01;45.56;101371.00;5128908;27;45434;-75
2023/09/09 06:51:45;;;;;;;;;14.33;13.67;;;;;29.02;45.39;101385.19;5134908;27;45396;-75
2023/09/09 06:54:10;;;;;;;;;13.00;12.00;;;;;29.01;45.58;101397.78;5135695;27;45315;-76
2023/09/09 06:56:35;;;;;;;;;15.00;14.00;;;;;28.92;45.38;101391.00;5126766;27;47159;-76
2023/09/09 06:59:01;;;;;;;;;13.33;12.00;;;;;28.76;45.96;101382.44;5099742;27;45434;-77
2023/09/09 07:01:26;;;;;;;;;15.00;14.67;;;;;28.79;46.06;101391.91;5117811;27;45371;-77
2023/09/09 07:03:52;;;;;;;;;15.33;14.00;;;;;28.70;46.30;101378.75;5099863;27;45583;-77
2023/09/09 07:06:17;;;;;;;;;16.67;16.33;;;;;28.67;46.05;101384.56;5118255;27;45387;-77
2023/09/09 07:08:43;;;;;;;;;12.33;11.67;;;;;28.59;46.36;101382.13;5118261;27;45323;-77
2023/09/09 07:11:08;;;;;;;;;15.67;15.00;;;;;28.63;46.21;101386.00;5118417;27;45334;-77
2023/09/09 07:13:34;;;;;;;;;15.00;14.67;;;;;28.62;45.86;101384.38;5117883;27;45647;-77
2023/09/09 07:15:59;;;;;;;;;15.67;15.00;;;;;28.69;45.81;101400.41;5119120;27;47184;-77
2023/09/09 07:18:25;;;;;;;;;16.67;16.00;;;;;28.63;46.22;101391.34;5120723;27;45450;-77
2023/09/09 07:20:50;;;;;;;;;16.67;15.67;;;;;28.63;46.13;101389.50;5118829;27;45413;-77
2023/09/09 07:23:17;;;;;;;;;15.33;15.33;;;;;28.68;46.55;101396.06;5117928;27;45341;-77
2023/09/09 07:25:43;;;;;;;;;13.33;13.00;;;;;28.66;46.46;101388.25;5117934;27;45463;-77
2023/09/09 07:28:09;;;;;;;;;17.00;16.00;;;;;28.69;46.26;101395.03;5117763;27;45493;-77
2023/09/09 07:30:35;;;;;;;;;14.00;14.00;;;;;28.70;46.16;101399.38;5116827;27;45369;-77
2023/09/09 07:33:00;;;;;;;;;14.33;14.00;;;;;28.66;46.17;101396.28;5117855;27;45408;-77
2023/09/09 07:35:26;;;;;;;;;14.00;14.00;;;;;28.67;45.95;101391.75;5117619;27;46395;-77
2023/09/09 07:37:51;;;;;;;;;14.67;13.67;;;;;28.69;46.13;101390.50;5118066;27;45190;-77
2023/09/09 07:40:17;;;;;;;;;16.33;14.00;;;;;28.73;45.92;101398.94;5118113;27;45267;-77
2023/09/09 07:42:42;;;;;;;;;13.67;13.67;;;;;28.72;45.94;101398.13;5117447;27;45336;-77
2023/09/09 07:45:08;;;;;;;;;14.33;14.33;;;;;28.78;46.22;101401.00;5117348;27;46129;-77
2023/09/09 07:47:33;;;;;;;;;15.33;14.33;;;;;28.68;46.19;101388.03;5095534;27;45863;-77
2023/09/09 07:49:59;;;;;;;;;19.00;18.67;;;;;28.68;46.35;101399.56;5097219;27;45434;-77
2023/09/09 07:52:24;;;;;;;;;13.00;12.00;;;;;28.67;46.35;101405.16;5095208;27;45416;-77
2023/09/09 07:54:51;;;;;;;;;19.00;16.00;;;;;28.51;46.29;101381.31;5096806;27;46068;-77
2023/09/09 07:57:17;;;;;;;;;17.00;16.00;;;;;28.54;46.25;101381.94;5096928;27;45460;-77
2023/09/09 07:59:42;;;;;;;;;15.33;12.33;;;;;28.65;46.57;101389.28;5095318;27;45389;-77
2023/09/09 08:02:08;;;;;;;;;17.00;14.67;;;;;28.71;46.50;101403.69;5095580;27;45398;-77
2023/09/09 08:04:33;;;;;;;;;17.00;17.00;;;;;28.75;46.79;101399.56;5096546;27;45393;-77
2023/09/09 08:06:58;;;;;;;;;18.00;14.67;;;;;28.75;46.45;101396.88;5095297;27;45562;-77
2023/09/09 08:09:25;;;;;;;;;15.67;14.67;;;;;28.74;46.44;101397.91;5096835;27;45224;-77
2023/09/09 08:11:51;;;;;;;;;18.00;15.67;;;;;28.75;46.45;101394.19;5096640;27;45297;-78
2023/09/09 08:14:17;;;;;;;;;18.00;15.00;;;;;28.82;46.52;101400.34;5096269;27;45394;-77
2023/09/09 08:16:42;;;;;;;;;20.33;16.67;;;;;28.76;46.42;101386.97;5096426;27;45318;-77
2023/09/09 08:19:08;;;;;;;;;17.00;15.33;;;;;28.77;46.27;101385.94;5096533;27;45306;-78
2023/09/09 08:21:34;;;;;;;;;17.67;17.67;;;;;28.84;46.27;101386.72;5095154;27;45396;-78
2023/09/09 08:24:00;;;;;;;;;14.25;13.75;;;;;28.92;46.03;101399.06;5096256;27;45402;-77
2023/09/09 08:26:26;;;;;;;;;15.67;15.67;;;;;29.02;46.27;101401.25;5096536;27;45396;-78
2023/09/09 08:28:51;;;;;;;;;15.00;13.33;;;;;29.02;46.41;101398.56;5095404;27;45404;-77
2023/09/09 08:31:17;;;;;;;;;16.25;16.25;;;;;29.03;46.24;101393.03;5096122;27;45389;-77
2023/09/09 08:33:42;;;;;;;;;13.00;13.00;;;;;29.06;46.13;101400.63;5096101;27;46089;-77
2023/09/09 08:36:07;;;;;;;;;17.75;16.00;;;;;29.10;45.87;101394.84;5096384;27;45265;-77
2023/09/09 08:38:33;;;;;;;;;15.67;15.33;;;;;29.15;46.03;101398.53;5096519;27;45389;-77
2023/09/09 08:40:58;;;;;;;;;18.67;17.00;;;;;29.21;46.27;101402.22;5096258;27;45478;-77
2023/09/09 08:43:58;;;;;;;;;17.00;16.00;;;;;29.26;45.79;101405.06;5095575;27;46515;-77
2023/09/09 08:46:24;;;;;;;;;16.33;16.33;;;;;29.25;45.69;101398.06;5033046;28;45430;-77
2023/09/09 08:48:50;;;;;;;;;17.00;16.00;;;;;29.27;45.58;101393.31;5032955;28;45674;-78
2023/09/09 08:51:17;;;;;;;;;16.33;14.00;;;;;29.33;45.20;101398.84;5032955;28;45475;-77
2023/09/09 08:53:44;;;;;;;;;21.33;17.00;;;;;29.41;45.37;101411.97;5032914;28;45433;-78
2023/09/09 08:56:12;;;;;;;;;14.67;14.33;;;;;29.40;45.29;101389.72;5032391;28;45390;-77
2023/09/09 08:58:40;;;;;;;;;15.33;15.33;;;;;29.44;45.67;101391.94;5032977;28;45280;-78
2023/09/09 09:01:06;;;;;;;;;16.00;15.33;;;;;29.36;45.46;101380.47;5032464;28;45566;-77
2023/09/09 09:03:33;;;;;;;;;19.00;13.67;;;;;29.54;45.04;101404.84;5032569;28;45473;-77
2023/09/09 09:06:01;;;;;;;;;5.33;2.00;;;;;29.59;44.56;101405.03;5032775;28;45467;-77
2023/09/09 09:08:27;;;;;;;;;13.00;13.00;;;;;29.62;44.64;101405.41;5032642;28;45360;-81
2023/09/09 09:10:55;;;;;;;;;16.33;13.33;;;;;29.65;44.34;101403.31;5032664;28;45364;-80
2023/09/09 09:13:21;;;;;;;;;12.33;12.33;;;;;29.62;44.29;101400.06;5032336;28;45673;-83
2023/09/09 09:15:46;;;;;;;;;15.67;14.33;;;;;29.69;44.03;101404.53;5032029;28;45347;-79
2023/09/09 09:18:12;;;;;;;;;15.67;13.00;;;;;29.67;44.39;101395.88;5032913;28;45475;-77
2023/09/09 09:20:40;;;;;;;;;16.00;15.00;;;;;29.77;44.48;101400.81;5032670;28;45382;-78
2023/09/09 09:23:09;;;;;;;;;13.33;12.00;;;;;29.78;43.92;101394.38;5052150;28;46229;-79
2023/09/09 09:25:42;;;;;;;;;15.33;14.00;;;;;29.87;44.28;101402.97;5063932;27;45503;-79
2023/09/09 09:28:08;;;;;;;;;11.67;11.67;;;;;29.90;43.93;101397.97;5060551;27;45472;-82
2023/09/09 09:30:34;;;;;;;;;14.33;14.33;;;;;29.91;43.77;101394.25;5073101;28;45378;-79
2023/09/09 09:33:00;;;;;;;;;10.00;10.00;;;;;29.92;44.19;101393.22;5073948;27;45443;-77
2023/09/09 09:35:30;;;;;;;;;14.00;12.00;;;;;29.95;44.49;101395.44;5073917;27;45349;-77
2023/09/09 09:38:00;;;;;;;;;16.00;15.00;;;;;30.00;44.48;101399.34;5075484;28;45292;-77
2023/09/09 09:40:27;;;;;;;;;15.00;13.67;;;;;29.97;44.33;101397.94;5075237;27;45589;-76
2023/09/09 09:42:53;;;;;;;;;15.67;12.33;;;;;29.98;44.55;101396.88;5078179;27;45568;-77
2023/09/09 09:45:27;;;;;;;;;15.33;13.33;;;;;29.98;44.69;101393.38;5078588;27;45428;-76
2023/09/09 09:47:54;;;;;;;;;14.00;14.00;;;;;29.99;44.47;101401.19;5086545;27;45411;-77
2023/09/09 09:50:30;;;;;;;;;16.33;14.33;;;;;30.02;44.64;101402.63;5098726;27;45366;-79
2023/09/09 09:53:01;;;;;;;;;18.33;16.33;;;;;30.00;44.81;101399.34;5098954;27;45665;-80
2023/09/09 09:55:28;;;;;;;;;15.67;13.00;;;;;30.02;44.80;101406.13;5098397;27;45458;-77
2023/09/09 09:57:58;;;;;;;;;15.33;14.33;;;;;30.04;44.68;101408.56;5097780;27;45389;-74
2023/09/09 10:00:25;;;;;;;;;15.33;14.33;;;;;30.02;45.04;101400.75;5099270;27;45269;-77
2023/09/09 10:02:53;;;;;;;;;16.67;13.00;;;;;30.01;44.89;101387.56;5097502;27;46152;-74
2023/09/09 10:05:21;;;;;;;;;14.00;13.33;;;;;30.01;44.77;101387.56;5099143;27;45344;-73
2023/09/09 10:08:06;;;;;;;;;13.67;13.33;;;;;30.05;45.07;101389.59;5078025;27;45516;-73
2023/09/09 10:10:35;;;;;;;;;12.00;12.00;;;;;30.08;45.14;101388.31;5089290;27;45314;-73
2023/09/09 10:13:11;;;;;;;;;15.00;13.33;;;;;30.06;45.11;101377.81;5086297;27;47399;-73
2023/09/09 10:15:38;;;;;;;;;15.00;13.33;;;;;30.12;45.06;101386.81;5097485;27;45342;-73
2023/09/09 10:18:06;;;;;;;;;16.67;13.00;;;;;30.07;45.05;101367.91;5098458;27;45367;-73
2023/09/09 10:20:33;;;;;;;;;14.33;13.00;;;;;30.10;45.28;101374.69;5097739;27;45689;-73
2023/09/09 10:23:00;;;;;;;;;10.67;10.67;;;;;30.13;45.17;101377.75;5097592;27;45399;-73
2023/09/09 10:25:27;;;;;;;;;16.33;14.67;;;;;30.16;45.31;101382.66;5104722;27;45520;-72
2023/09/09 10:27:52;;;;;;;;;13.67;12.67;;;;;30.11;45.21;101365.59;5084213;27;45266;-73
2023/09/09 10:30:19;;;;;;;;;14.67;13.67;;;;;30.11;45.41;101358.34;5098082;27;45443;-72
2023/09/09 10:32:46;;;;;;;;;15.00;13.00;;;;;30.19;45.58;101384.06;5083536;27;46813;-73
2023/09/09 10:35:12;;;;;;;;;16.33;13.00;;;;;30.18;45.47;101371.72;5098406;27;45431;-73
2023/09/09 10:37:38;;;;;;;;;14.33;13.33;;;;;30.17;45.14;101362.84;5100929;27;45408;-72
2023/09/09 10:40:05;;;;;;;;;13.67;13.33;;;;;30.17;45.33;101362.84;5096743;27;45420;-73
2023/09/09 10:42:34;;;;;;;;;14.00;12.00;;;;;30.17;45.54;101362.00;5099469;27;47450;-73
2023/09/09 10:45:28;;;;;;;;;15.00;12.33;;;;;30.22;45.38;101372.06;5095878;27;45233;-73
2023/09/09 10:48:11;;;;;;;;;17.67;15.33;;;;;30.18;45.75;101361.78;5105628;27;45501;-73
2023/09/09 10:50:51;;;;;;;;;14.00;12.33;;;;;30.25;45.54;101360.88;5100512;27;45447;-73
2023/09/09 10:53:26;;;;;;;;;14.00;11.33;;;;;30.25;45.80;101366.25;5113355;27;46721;-73
2023/09/09 10:55:54;;;;;;;;;14.33;13.33;;;;;30.24;45.79;101357.38;5110952;27;45321;-76
2023/09/09 10:58:20;;;;;;;;;12.67;12.67;;;;;30.27;45.66;101362.28;5109064;27;45641;-76
2023/09/09 11:00:48;;;;;;;;;13.00;13.00;;;;;30.23;45.59;101352.25;5117924;27;45511;-76
2023/09/09 11:03:26;;;;;;;;;11.33;11.33;;;;;30.23;45.74;101345.03;5117562;27;45520;-76
2023/09/09 11:06:07;;;;;;;;;13.00;13.00;;;;;30.24;45.98;101345.84;5117599;27;45452;-75